sensor_id;sensor_type;location;lat;lon;timestamp;temperature;humidity
6986;DHT22;3533;51.246;6.850;2022-12-07T00:02:17;19.20;39.70
6986;DHT22;3533;51.246;6.850;2022-12-07T00:04:43;19.20;39.60
6986;DHT22;3533;51.246;6.850;2022-12-07T00:07:08;19.20;39.60
6986;DHT22;3533;51.246;6.850;2022-12-07T00:09:34;19.20;39.60
6986;DHT22;3533;51.246;6.850;2022-12-07T00:11:59;19.20;39.60
6986;DHT22;3533;51.246;6.850;2022-12-07T00:14:25;19.20;39.60
6986;DHT22;3533;51.246;6.850;2022-12-07T00:16:51;19.20;39.60
6986;DHT22;3533;51.246;6.850;2022-12-07T00:19:17;19.20;39.70
6986;DHT22;3533;51.246;6.850;2022-12-07T00:21:43;19.20;39.70
6986;DHT22;3533;51.246;6.850;2022-12-07T00:24:10;19.20;39.70
6986;DHT22;3533;51.246;6.850;2022-12-07T00:26:37;19.20;39.60
6986;DHT22;3533;51.246;6.850;2022-12-07T00:29:06;19.20;39.60
6986;DHT22;3533;51.246;6.850;2022-12-07T00:31:34;19.20;39.70
6986;DHT22;3533;51.246;6.850;2022-12-07T00:34:01;19.20;39.70
6986;DHT22;3533;51.246;6.850;2022-12-07T00:36:27;19.20;39.70
6986;DHT22;3533;51.246;6.850;2022-12-07T00:38:53;19.20;39.70
6986;DHT22;3533;51.246;6.850;2022-12-07T00:41:24;19.20;39.70
6986;DHT22;3533;51.246;6.850;2022-12-07T00:43:51;19.20;39.70
6986;DHT22;3533;51.246;6.850;2022-12-07T00:46:18;19.20;39.70
6986;DHT22;3533;51.246;6.850;2022-12-07T00:48:43;19.20;39.70
6986;DHT22;3533;51.246;6.850;2022-12-07T00:51:13;19.20;39.80
6986;DHT22;3533;51.246;6.850;2022-12-07T00:53:40;19.20;39.70
6986;DHT22;3533;51.246;6.850;2022-12-07T00:56:14;19.20;39.70
6986;DHT22;3533;51.246;6.850;2022-12-07T00:58:40;19.20;39.70
6986;DHT22;3533;51.246;6.850;2022-12-07T01:01:08;19.20;39.80
6986;DHT22;3533;51.246;6.850;2022-12-07T01:03:34;19.20;39.80
6986;DHT22;3533;51.246;6.850;2022-12-07T01:05:59;19.20;39.80
6986;DHT22;3533;51.246;6.850;2022-12-07T01:08:27;19.20;39.70
6986;DHT22;3533;51.246;6.850;2022-12-07T01:11:01;19.20;39.70
6986;DHT22;3533;51.246;6.850;2022-12-07T01:13:27;19.20;39.70
6986;DHT22;3533;51.246;6.850;2022-12-07T01:15:57;19.20;39.80
6986;DHT22;3533;51.246;6.850;2022-12-07T01:18:23;19.20;39.80
6986;DHT22;3533;51.246;6.850;2022-12-07T01:21:10;19.20;39.80
6986;DHT22;3533;51.246;6.850;2022-12-07T01:23:36;19.20;39.70
6986;DHT22;3533;51.246;6.850;2022-12-07T01:26:05;19.20;39.80
6986;DHT22;3533;51.246;6.850;2022-12-07T01:28:31;19.10;39.70
6986;DHT22;3533;51.246;6.850;2022-12-07T01:31:06;19.20;39.90
6986;DHT22;3533;51.246;6.850;2022-12-07T01:33:34;19.20;39.80
6986;DHT22;3533;51.246;6.850;2022-12-07T01:36:05;19.20;39.80
6986;DHT22;3533;51.246;6.850;2022-12-07T01:38:31;19.20;39.80
6986;DHT22;3533;51.246;6.850;2022-12-07T01:40:58;19.20;39.80
6986;DHT22;3533;51.246;6.850;2022-12-07T01:43:26;19.20;39.80
6986;DHT22;3533;51.246;6.850;2022-12-07T01:45:52;19.20;39.80
6986;DHT22;3533;51.246;6.850;2022-12-07T01:48:21;19.10;39.70
6986;DHT22;3533;51.246;6.850;2022-12-07T01:50:50;19.20;39.80
6986;DHT22;3533;51.246;6.850;2022-12-07T01:53:17;19.20;39.80
6986;DHT22;3533;51.246;6.850;2022-12-07T01:55:45;19.20;39.80
6986;DHT22;3533;51.246;6.850;2022-12-07T01:58:12;19.20;39.90
6986;DHT22;3533;51.246;6.850;2022-12-07T02:00:38;19.20;39.90
6986;DHT22;3533;51.246;6.850;2022-12-07T02:03:27;19.20;39.90
6986;DHT22;3533;51.246;6.850;2022-12-07T02:05:54;19.20;39.80
6986;DHT22;3533;51.246;6.850;2022-12-07T02:08:20;19.10;39.80
6986;DHT22;3533;51.246;6.850;2022-12-07T02:10:46;19.10;39.80
6986;DHT22;3533;51.246;6.850;2022-12-07T02:13:14;19.20;39.90
6986;DHT22;3533;51.246;6.850;2022-12-07T02:18:38;19.20;39.80
6986;DHT22;3533;51.246;6.850;2022-12-07T02:29:45;19.20;39.90
6986;DHT22;3533;51.246;6.850;2022-12-07T02:35:09;19.20;39.90
6986;DHT22;3533;51.246;6.850;2022-12-07T02:43:12;19.10;39.80
6986;DHT22;3533;51.246;6.850;2022-12-07T02:45:41;19.20;40.70
6986;DHT22;3533;51.246;6.850;2022-12-07T02:48:08;19.10;39.80
6986;DHT22;3533;51.246;6.850;2022-12-07T02:50:35;19.20;39.90
6986;DHT22;3533;51.246;6.850;2022-12-07T02:53:00;19.20;40.00
6986;DHT22;3533;51.246;6.850;2022-12-07T02:55:30;19.20;39.90
6986;DHT22;3533;51.246;6.850;2022-12-07T02:58:08;19.20;39.90
6986;DHT22;3533;51.246;6.850;2022-12-07T03:00:50;19.20;39.90
6986;DHT22;3533;51.246;6.850;2022-12-07T03:03:17;19.20;39.90
6986;DHT22;3533;51.246;6.850;2022-12-07T03:06:28;19.20;39.90
6986;DHT22;3533;51.246;6.850;2022-12-07T03:12:12;19.20;39.90
6986;DHT22;3533;51.246;6.850;2022-12-07T03:14:46;19.10;39.90
6986;DHT22;3533;51.246;6.850;2022-12-07T03:17:17;19.20;40.00
6986;DHT22;3533;51.246;6.850;2022-12-07T03:19:45;19.20;40.00
6986;DHT22;3533;51.246;6.850;2022-12-07T03:22:13;19.20;40.00
6986;DHT22;3533;51.246;6.850;2022-12-07T03:27:12;19.20;40.00
6986;DHT22;3533;51.246;6.850;2022-12-07T03:29:43;19.20;40.00
6986;DHT22;3533;51.246;6.850;2022-12-07T03:32:21;19.20;40.00
6986;DHT22;3533;51.246;6.850;2022-12-07T03:40:25;19.20;40.00
6986;DHT22;3533;51.246;6.850;2022-12-07T03:42:51;19.20;40.00
6986;DHT22;3533;51.246;6.850;2022-12-07T03:45:18;19.10;39.90
6986;DHT22;3533;51.246;6.850;2022-12-07T03:48:03;19.20;40.00
6986;DHT22;3533;51.246;6.850;2022-12-07T03:51:01;19.20;40.00
6986;DHT22;3533;51.246;6.850;2022-12-07T03:53:39;19.10;39.90
6986;DHT22;3533;51.246;6.850;2022-12-07T03:56:06;19.20;40.00
6986;DHT22;3533;51.246;6.850;2022-12-07T03:58:34;19.20;40.00
6986;DHT22;3533;51.246;6.850;2022-12-07T04:01:00;19.20;40.00
6986;DHT22;3533;51.246;6.850;2022-12-07T04:03:26;19.20;40.00
6986;DHT22;3533;51.246;6.850;2022-12-07T04:05:51;19.10;40.00
6986;DHT22;3533;51.246;6.850;2022-12-07T04:08:17;19.20;40.00
6986;DHT22;3533;51.246;6.850;2022-12-07T04:10:42;19.10;39.90
6986;DHT22;3533;51.246;6.850;2022-12-07T04:13:08;19.20;40.00
6986;DHT22;3533;51.246;6.850;2022-12-07T04:15:33;19.20;40.10
6986;DHT22;3533;51.246;6.850;2022-12-07T04:17:59;19.20;40.00
6986;DHT22;3533;51.246;6.850;2022-12-07T04:20:25;19.10;40.00
6986;DHT22;3533;51.246;6.850;2022-12-07T04:22:50;19.10;40.00
6986;DHT22;3533;51.246;6.850;2022-12-07T04:25:16;19.10;40.00
6986;DHT22;3533;51.246;6.850;2022-12-07T04:27:42;19.20;40.00
6986;DHT22;3533;51.246;6.850;2022-12-07T04:30:08;19.10;40.00
6986;DHT22;3533;51.246;6.850;2022-12-07T04:32:34;19.20;40.00
6986;DHT22;3533;51.246;6.850;2022-12-07T04:34:59;19.20;40.00
6986;DHT22;3533;51.246;6.850;2022-12-07T04:37:25;19.10;40.00
6986;DHT22;3533;51.246;6.850;2022-12-07T04:39:50;19.10;40.00
6986;DHT22;3533;51.246;6.850;2022-12-07T04:42:16;19.20;40.00
6986;DHT22;3533;51.246;6.850;2022-12-07T04:44:41;19.20;40.00
6986;DHT22;3533;51.246;6.850;2022-12-07T04:47:07;19.20;40.00
6986;DHT22;3533;51.246;6.850;2022-12-07T04:49:32;19.20;40.00
6986;DHT22;3533;51.246;6.850;2022-12-07T04:51:58;19.10;40.00
6986;DHT22;3533;51.246;6.850;2022-12-07T04:54:23;19.20;40.00
6986;DHT22;3533;51.246;6.850;2022-12-07T04:56:49;19.10;39.90
6986;DHT22;3533;51.246;6.850;2022-12-07T04:59:16;19.20;40.00
6986;DHT22;3533;51.246;6.850;2022-12-07T05:01:41;19.20;39.90
6986;DHT22;3533;51.246;6.850;2022-12-07T05:04:07;19.20;39.90
6986;DHT22;3533;51.246;6.850;2022-12-07T05:06:34;19.20;39.90
6986;DHT22;3533;51.246;6.850;2022-12-07T05:08:59;19.20;39.90
6986;DHT22;3533;51.246;6.850;2022-12-07T05:11:25;19.20;39.90
6986;DHT22;3533;51.246;6.850;2022-12-07T05:16:34;19.20;39.90
6986;DHT22;3533;51.246;6.850;2022-12-07T05:19:00;19.20;39.80
6986;DHT22;3533;51.246;6.850;2022-12-07T05:21:25;19.30;39.90
6986;DHT22;3533;51.246;6.850;2022-12-07T05:23:51;19.30;39.80
6986;DHT22;3533;51.246;6.850;2022-12-07T05:26:16;19.30;39.80
6986;DHT22;3533;51.246;6.850;2022-12-07T05:28:42;19.30;39.70
6986;DHT22;3533;51.246;6.850;2022-12-07T05:31:08;19.30;39.70
6986;DHT22;3533;51.246;6.850;2022-12-07T05:33:33;19.30;39.70
6986;DHT22;3533;51.246;6.850;2022-12-07T05:35:59;19.30;39.60
6986;DHT22;3533;51.246;6.850;2022-12-07T05:38:33;19.30;39.70
6986;DHT22;3533;51.246;6.850;2022-12-07T05:41:02;19.30;39.60
6986;DHT22;3533;51.246;6.850;2022-12-07T05:43:29;19.40;39.70
6986;DHT22;3533;51.246;6.850;2022-12-07T05:45:54;19.30;39.60
6986;DHT22;3533;51.246;6.850;2022-12-07T05:48:20;19.40;39.70
6986;DHT22;3533;51.246;6.850;2022-12-07T05:50:48;19.30;39.70
6986;DHT22;3533;51.246;6.850;2022-12-07T05:53:14;19.30;39.70
6986;DHT22;3533;51.246;6.850;2022-12-07T05:55:40;19.30;39.70
6986;DHT22;3533;51.246;6.850;2022-12-07T05:58:09;19.30;39.70
6986;DHT22;3533;51.246;6.850;2022-12-07T06:00:56;19.30;39.70
6986;DHT22;3533;51.246;6.850;2022-12-07T06:03:21;19.30;39.70
6986;DHT22;3533;51.246;6.850;2022-12-07T06:05:47;19.30;39.70
6986;DHT22;3533;51.246;6.850;2022-12-07T06:08:13;19.30;39.70
6986;DHT22;3533;51.246;6.850;2022-12-07T06:10:40;19.30;39.80
6986;DHT22;3533;51.246;6.850;2022-12-07T06:13:07;19.30;39.70
6986;DHT22;3533;51.246;6.850;2022-12-07T06:15:32;19.30;40.50
6986;DHT22;3533;51.246;6.850;2022-12-07T06:17:58;19.30;39.70
6986;DHT22;3533;51.246;6.850;2022-12-07T06:20:23;19.30;39.70
6986;DHT22;3533;51.246;6.850;2022-12-07T06:22:49;19.30;39.70
6986;DHT22;3533;51.246;6.850;2022-12-07T06:25:14;19.30;39.60
6986;DHT22;3533;51.246;6.850;2022-12-07T06:27:40;19.30;39.80
6986;DHT22;3533;51.246;6.850;2022-12-07T06:30:06;19.30;39.70
6986;DHT22;3533;51.246;6.850;2022-12-07T06:32:34;19.30;39.70
6986;DHT22;3533;51.246;6.850;2022-12-07T06:34:59;19.30;39.70
6986;DHT22;3533;51.246;6.850;2022-12-07T06:37:25;19.30;39.60
6986;DHT22;3533;51.246;6.850;2022-12-07T06:39:50;19.30;39.70
6986;DHT22;3533;51.246;6.850;2022-12-07T06:42:16;19.30;39.60
6986;DHT22;3533;51.246;6.850;2022-12-07T06:44:42;19.30;39.60
6986;DHT22;3533;51.246;6.850;2022-12-07T06:47:07;19.40;39.60
6986;DHT22;3533;51.246;6.850;2022-12-07T06:49:34;19.30;39.60
6986;DHT22;3533;51.246;6.850;2022-12-07T06:52:00;19.30;39.60
6986;DHT22;3533;51.246;6.850;2022-12-07T06:54:25;19.40;39.70
6986;DHT22;3533;51.246;6.850;2022-12-07T06:56:51;19.30;39.60
6986;DHT22;3533;51.246;6.850;2022-12-07T06:59:16;19.30;39.60
6986;DHT22;3533;51.246;6.850;2022-12-07T07:01:42;19.30;39.70
6986;DHT22;3533;51.246;6.850;2022-12-07T07:04:07;19.30;39.60
6986;DHT22;3533;51.246;6.850;2022-12-07T07:06:33;19.30;39.70
6986;DHT22;3533;51.246;6.850;2022-12-07T07:08:59;19.30;39.70
6986;DHT22;3533;51.246;6.850;2022-12-07T07:11:25;19.30;39.60
6986;DHT22;3533;51.246;6.850;2022-12-07T07:13:50;19.30;39.70
6986;DHT22;3533;51.246;6.850;2022-12-07T07:16:16;19.30;39.70
6986;DHT22;3533;51.246;6.850;2022-12-07T07:18:41;19.30;39.60
6986;DHT22;3533;51.246;6.850;2022-12-07T07:21:07;19.30;39.70
6986;DHT22;3533;51.246;6.850;2022-12-07T07:23:33;19.30;39.70
6986;DHT22;3533;51.246;6.850;2022-12-07T07:25:58;19.30;39.70
6986;DHT22;3533;51.246;6.850;2022-12-07T07:28:24;19.30;39.70
6986;DHT22;3533;51.246;6.850;2022-12-07T07:30:49;19.30;39.60
6986;DHT22;3533;51.246;6.850;2022-12-07T07:33:15;19.30;39.60
6986;DHT22;3533;51.246;6.850;2022-12-07T07:35:41;19.30;39.60
6986;DHT22;3533;51.246;6.850;2022-12-07T07:38:07;19.30;39.70
6986;DHT22;3533;51.246;6.850;2022-12-07T07:40:33;19.30;39.70
6986;DHT22;3533;51.246;6.850;2022-12-07T07:42:59;19.30;39.60
6986;DHT22;3533;51.246;6.850;2022-12-07T07:45:26;19.30;39.70
6986;DHT22;3533;51.246;6.850;2022-12-07T07:47:51;19.30;39.60
6986;DHT22;3533;51.246;6.850;2022-12-07T07:50:17;19.30;39.70
6986;DHT22;3533;51.246;6.850;2022-12-07T07:52:44;19.30;39.70
6986;DHT22;3533;51.246;6.850;2022-12-07T07:55:10;19.30;39.60
6986;DHT22;3533;51.246;6.850;2022-12-07T07:57:36;19.30;39.70
6986;DHT22;3533;51.246;6.850;2022-12-07T08:00:06;19.30;39.70
6986;DHT22;3533;51.246;6.850;2022-12-07T08:02:32;19.30;39.70
6986;DHT22;3533;51.246;6.850;2022-12-07T08:04:57;19.30;39.60
6986;DHT22;3533;51.246;6.850;2022-12-07T08:07:23;19.30;39.70
6986;DHT22;3533;51.246;6.850;2022-12-07T08:09:48;19.30;39.60
6986;DHT22;3533;51.246;6.850;2022-12-07T08:12:14;19.30;39.60
6986;DHT22;3533;51.246;6.850;2022-12-07T08:14:39;19.30;39.60
6986;DHT22;3533;51.246;6.850;2022-12-07T08:17:05;19.30;39.60
6986;DHT22;3533;51.246;6.850;2022-12-07T08:19:30;19.30;39.60
6986;DHT22;3533;51.246;6.850;2022-12-07T08:21:56;19.30;39.60
6986;DHT22;3533;51.246;6.850;2022-12-07T08:24:22;19.30;39.60
6986;DHT22;3533;51.246;6.850;2022-12-07T08:26:48;19.30;39.60
6986;DHT22;3533;51.246;6.850;2022-12-07T08:29:15;19.30;39.60
6986;DHT22;3533;51.246;6.850;2022-12-07T08:31:40;19.30;39.60
6986;DHT22;3533;51.246;6.850;2022-12-07T08:34:06;19.30;39.60
6986;DHT22;3533;51.246;6.850;2022-12-07T08:36:31;19.30;39.60
6986;DHT22;3533;51.246;6.850;2022-12-07T08:38:57;19.30;39.60
6986;DHT22;3533;51.246;6.850;2022-12-07T08:41:22;19.30;39.60
6986;DHT22;3533;51.246;6.850;2022-12-07T08:43:48;19.30;39.60
6986;DHT22;3533;51.246;6.850;2022-12-07T08:46:23;19.30;39.60
6986;DHT22;3533;51.246;6.850;2022-12-07T08:49:03;19.30;39.60
6986;DHT22;3533;51.246;6.850;2022-12-07T08:51:29;19.30;39.60
6986;DHT22;3533;51.246;6.850;2022-12-07T08:53:56;19.30;39.60
6986;DHT22;3533;51.246;6.850;2022-12-07T08:56:24;19.30;39.60
6986;DHT22;3533;51.246;6.850;2022-12-07T08:58:49;19.30;39.70
6986;DHT22;3533;51.246;6.850;2022-12-07T09:01:15;19.30;39.60
6986;DHT22;3533;51.246;6.850;2022-12-07T09:03:41;19.30;39.70
6986;DHT22;3533;51.246;6.850;2022-12-07T09:06:06;19.30;39.60
6986;DHT22;3533;51.246;6.850;2022-12-07T09:08:36;19.30;40.40
6986;DHT22;3533;51.246;6.850;2022-12-07T09:11:02;19.30;39.70
6986;DHT22;3533;51.246;6.850;2022-12-07T09:13:28;19.30;39.70
6986;DHT22;3533;51.246;6.850;2022-12-07T09:15:53;19.30;39.70
6986;DHT22;3533;51.246;6.850;2022-12-07T09:18:19;19.30;39.60
6986;DHT22;3533;51.246;6.850;2022-12-07T09:20:45;19.30;40.50
6986;DHT22;3533;51.246;6.850;2022-12-07T09:23:10;19.30;39.60
6986;DHT22;3533;51.246;6.850;2022-12-07T09:25:36;19.30;39.70
6986;DHT22;3533;51.246;6.850;2022-12-07T09:28:01;19.30;39.70
6986;DHT22;3533;51.246;6.850;2022-12-07T09:30:27;19.30;39.70
6986;DHT22;3533;51.246;6.850;2022-12-07T09:32:55;19.30;40.50
6986;DHT22;3533;51.246;6.850;2022-12-07T09:35:21;19.30;39.70
6986;DHT22;3533;51.246;6.850;2022-12-07T09:37:46;19.30;39.70
6986;DHT22;3533;51.246;6.850;2022-12-07T09:40:13;19.30;39.70
6986;DHT22;3533;51.246;6.850;2022-12-07T09:42:43;19.30;39.70
6986;DHT22;3533;51.246;6.850;2022-12-07T09:45:26;19.30;39.70
6986;DHT22;3533;51.246;6.850;2022-12-07T09:47:52;19.20;39.60
6986;DHT22;3533;51.246;6.850;2022-12-07T09:50:23;19.30;39.70
6986;DHT22;3533;51.246;6.850;2022-12-07T09:52:51;19.30;39.70
6986;DHT22;3533;51.246;6.850;2022-12-07T09:55:23;19.20;39.60
6986;DHT22;3533;51.246;6.850;2022-12-07T09:57:50;19.30;39.80
6986;DHT22;3533;51.246;6.850;2022-12-07T10:00:19;19.30;39.70
6986;DHT22;3533;51.246;6.850;2022-12-07T10:02:57;19.30;39.70
6986;DHT22;3533;51.246;6.850;2022-12-07T10:05:49;19.30;39.70
6986;DHT22;3533;51.246;6.850;2022-12-07T10:08:16;19.30;39.70
6986;DHT22;3533;51.246;6.850;2022-12-07T10:10:44;19.20;39.60
6986;DHT22;3533;51.246;6.850;2022-12-07T10:13:15;19.20;39.60
6986;DHT22;3533;51.246;6.850;2022-12-07T10:15:52;19.20;39.60
6986;DHT22;3533;51.246;6.850;2022-12-07T10:20:46;19.30;39.70
6986;DHT22;3533;51.246;6.850;2022-12-07T10:23:17;19.20;39.60
6986;DHT22;3533;51.246;6.850;2022-12-07T10:25:43;19.30;39.80
6986;DHT22;3533;51.246;6.850;2022-12-07T10:28:17;19.30;39.70
6986;DHT22;3533;51.246;6.850;2022-12-07T10:31:03;19.30;39.70
6986;DHT22;3533;51.246;6.850;2022-12-07T10:33:59;19.20;39.60
6986;DHT22;3533;51.246;6.850;2022-12-07T10:36:38;19.20;39.60
6986;DHT22;3533;51.246;6.850;2022-12-07T10:39:15;19.30;39.70
6986;DHT22;3533;51.246;6.850;2022-12-07T10:44:22;19.20;39.60
6986;DHT22;3533;51.246;6.850;2022-12-07T10:47:24;19.30;39.70
6986;DHT22;3533;51.246;6.850;2022-12-07T10:50:13;19.30;39.70
6986;DHT22;3533;51.246;6.850;2022-12-07T10:52:45;19.30;39.70
6986;DHT22;3533;51.246;6.850;2022-12-07T11:03:42;19.30;39.70
6986;DHT22;3533;51.246;6.850;2022-12-07T11:12:11;19.20;39.60
6986;DHT22;3533;51.246;6.850;2022-12-07T11:20:34;19.20;39.70
6986;DHT22;3533;51.246;6.850;2022-12-07T11:23:21;19.30;39.80
6986;DHT22;3533;51.246;6.850;2022-12-07T11:28:39;19.20;39.60
6986;DHT22;3533;51.246;6.850;2022-12-07T11:31:22;19.20;39.60
6986;DHT22;3533;51.246;6.850;2022-12-07T11:34:00;19.20;39.60
6986;DHT22;3533;51.246;6.850;2022-12-07T11:39:02;19.30;39.70
6986;DHT22;3533;51.246;6.850;2022-12-07T11:41:33;19.20;39.60
6986;DHT22;3533;51.246;6.850;2022-12-07T11:46:58;19.30;39.60
6986;DHT22;3533;51.246;6.850;2022-12-07T11:49:33;19.20;39.60
6986;DHT22;3533;51.246;6.850;2022-12-07T11:52:04;19.30;39.70
6986;DHT22;3533;51.246;6.850;2022-12-07T11:54:35;19.30;39.70
6986;DHT22;3533;51.246;6.850;2022-12-07T11:57:10;19.30;40.40
6986;DHT22;3533;51.246;6.850;2022-12-07T11:59:47;19.30;39.60
6986;DHT22;3533;51.246;6.850;2022-12-07T12:02:23;19.30;39.60
6986;DHT22;3533;51.246;6.850;2022-12-07T12:05:02;19.30;39.70
6986;DHT22;3533;51.246;6.850;2022-12-07T12:07:31;19.30;39.60
6986;DHT22;3533;51.246;6.850;2022-12-07T12:10:05;19.30;40.40
6986;DHT22;3533;51.246;6.850;2022-12-07T12:23:20;19.30;39.60
6986;DHT22;3533;51.246;6.850;2022-12-07T12:25:49;19.30;39.70
6986;DHT22;3533;51.246;6.850;2022-12-07T12:28:39;19.30;39.60
6986;DHT22;3533;51.246;6.850;2022-12-07T12:47:04;19.30;39.70
6986;DHT22;3533;51.246;6.850;2022-12-07T12:49:37;19.30;39.70
6986;DHT22;3533;51.246;6.850;2022-12-07T12:57:36;19.30;39.60
6986;DHT22;3533;51.246;6.850;2022-12-07T13:00:22;19.30;39.60
6986;DHT22;3533;51.246;6.850;2022-12-07T13:02:49;19.30;39.60
6986;DHT22;3533;51.246;6.850;2022-12-07T13:05:19;19.30;39.60
6986;DHT22;3533;51.246;6.850;2022-12-07T13:12:58;19.30;39.60
6986;DHT22;3533;51.246;6.850;2022-12-07T13:15:41;19.30;39.60
6986;DHT22;3533;51.246;6.850;2022-12-07T13:20:58;19.30;39.60
6986;DHT22;3533;51.246;6.850;2022-12-07T13:23:31;19.30;39.60
6986;DHT22;3533;51.246;6.850;2022-12-07T13:31:52;19.30;39.60
6986;DHT22;3533;51.246;6.850;2022-12-07T13:34:37;19.30;39.60
6986;DHT22;3533;51.246;6.850;2022-12-07T13:37:30;19.30;39.60
6986;DHT22;3533;51.246;6.850;2022-12-07T13:39:59;19.30;39.70
6986;DHT22;3533;51.246;6.850;2022-12-07T13:42:31;19.30;39.60
6986;DHT22;3533;51.246;6.850;2022-12-07T13:44:58;19.30;39.60
6986;DHT22;3533;51.246;6.850;2022-12-07T13:47:41;19.30;39.60
6986;DHT22;3533;51.246;6.850;2022-12-07T13:50:27;19.30;39.60
6986;DHT22;3533;51.246;6.850;2022-12-07T13:52:57;19.30;39.60
6986;DHT22;3533;51.246;6.850;2022-12-07T13:55:23;19.30;39.60
6986;DHT22;3533;51.246;6.850;2022-12-07T13:57:52;19.30;39.60
6986;DHT22;3533;51.246;6.850;2022-12-07T14:00:23;19.30;39.60
6986;DHT22;3533;51.246;6.850;2022-12-07T14:03:00;19.30;39.60
6986;DHT22;3533;51.246;6.850;2022-12-07T14:05:28;19.30;39.60
6986;DHT22;3533;51.246;6.850;2022-12-07T14:16:04;19.30;39.60
6986;DHT22;3533;51.246;6.850;2022-12-07T14:18:38;19.30;39.50
6986;DHT22;3533;51.246;6.850;2022-12-07T14:23:37;19.30;39.50
6986;DHT22;3533;51.246;6.850;2022-12-07T14:26:21;19.30;39.50
6986;DHT22;3533;51.246;6.850;2022-12-07T14:28:47;19.30;39.40
6986;DHT22;3533;51.246;6.850;2022-12-07T14:31:23;19.30;39.50
6986;DHT22;3533;51.246;6.850;2022-12-07T14:33:49;19.30;39.50
6986;DHT22;3533;51.246;6.850;2022-12-07T14:36:15;19.30;39.50
6986;DHT22;3533;51.246;6.850;2022-12-07T14:38:40;19.30;39.40
6986;DHT22;3533;51.246;6.850;2022-12-07T14:41:13;19.30;39.30
6986;DHT22;3533;51.246;6.850;2022-12-07T14:43:58;19.30;39.30
6986;DHT22;3533;51.246;6.850;2022-12-07T14:46:24;19.30;39.20
6986;DHT22;3533;51.246;6.850;2022-12-07T14:48:49;19.30;39.10
6986;DHT22;3533;51.246;6.850;2022-12-07T14:51:15;19.30;39.00
6986;DHT22;3533;51.246;6.850;2022-12-07T14:53:50;19.20;39.00
6986;DHT22;3533;51.246;6.850;2022-12-07T14:56:17;19.30;39.00
6986;DHT22;3533;51.246;6.850;2022-12-07T14:58:42;19.30;39.70
6986;DHT22;3533;51.246;6.850;2022-12-07T15:01:08;19.30;38.90
6986;DHT22;3533;51.246;6.850;2022-12-07T15:03:33;19.30;38.90
6986;DHT22;3533;51.246;6.850;2022-12-07T15:06:05;19.20;38.80
6986;DHT22;3533;51.246;6.850;2022-12-07T15:08:31;19.30;38.80
6986;DHT22;3533;51.246;6.850;2022-12-07T15:10:56;19.30;38.80
6986;DHT22;3533;51.246;6.850;2022-12-07T15:13:22;19.30;38.80
6986;DHT22;3533;51.246;6.850;2022-12-07T15:16:10;19.20;38.70
6986;DHT22;3533;51.246;6.850;2022-12-07T15:18:38;19.20;38.60
6986;DHT22;3533;51.246;6.850;2022-12-07T15:21:03;19.30;38.80
6986;DHT22;3533;51.246;6.850;2022-12-07T15:23:30;19.30;38.90
6986;DHT22;3533;51.246;6.850;2022-12-07T15:25:56;19.30;38.80
6986;DHT22;3533;51.246;6.850;2022-12-07T15:28:22;19.20;38.70
6986;DHT22;3533;51.246;6.850;2022-12-07T15:30:47;19.30;38.70
6986;DHT22;3533;51.246;6.850;2022-12-07T15:33:13;19.20;38.70
6986;DHT22;3533;51.246;6.850;2022-12-07T15:35:40;19.30;38.70
6986;DHT22;3533;51.246;6.850;2022-12-07T15:38:06;19.20;38.60
6986;DHT22;3533;51.246;6.850;2022-12-07T15:40:31;19.30;38.80
6986;DHT22;3533;51.246;6.850;2022-12-07T15:42:57;19.20;38.70
6986;DHT22;3533;51.246;6.850;2022-12-07T15:45:22;19.20;38.60
6986;DHT22;3533;51.246;6.850;2022-12-07T15:47:48;19.30;38.70
6986;DHT22;3533;51.246;6.850;2022-12-07T15:50:15;19.30;38.80
6986;DHT22;3533;51.246;6.850;2022-12-07T15:52:41;19.30;38.90
6986;DHT22;3533;51.246;6.850;2022-12-07T15:55:09;19.30;38.80
6986;DHT22;3533;51.246;6.850;2022-12-07T15:57:36;19.30;38.90
6986;DHT22;3533;51.246;6.850;2022-12-07T16:00:08;19.30;38.80
6986;DHT22;3533;51.246;6.850;2022-12-07T16:02:37;19.30;38.80
6986;DHT22;3533;51.246;6.850;2022-12-07T16:05:03;19.30;38.90
6986;DHT22;3533;51.246;6.850;2022-12-07T16:07:28;19.30;38.70
6986;DHT22;3533;51.246;6.850;2022-12-07T16:09:54;19.30;38.80
6986;DHT22;3533;51.246;6.850;2022-12-07T16:12:19;19.30;38.80
6986;DHT22;3533;51.246;6.850;2022-12-07T16:14:45;19.30;38.80
6986;DHT22;3533;51.246;6.850;2022-12-07T16:17:11;19.30;38.80
6986;DHT22;3533;51.246;6.850;2022-12-07T16:19:37;19.30;39.50
6986;DHT22;3533;51.246;6.850;2022-12-07T16:22:03;19.30;38.80
6986;DHT22;3533;51.246;6.850;2022-12-07T16:24:30;19.30;38.80
6986;DHT22;3533;51.246;6.850;2022-12-07T16:26:55;19.30;38.80
6986;DHT22;3533;51.246;6.850;2022-12-07T16:29:21;19.30;38.80
6986;DHT22;3533;51.246;6.850;2022-12-07T16:31:48;19.30;38.70
6986;DHT22;3533;51.246;6.850;2022-12-07T16:34:13;19.30;38.70
6986;DHT22;3533;51.246;6.850;2022-12-07T16:36:39;19.30;38.80
6986;DHT22;3533;51.246;6.850;2022-12-07T16:39:05;19.30;38.70
6986;DHT22;3533;51.246;6.850;2022-12-07T16:41:31;19.30;38.80
6986;DHT22;3533;51.246;6.850;2022-12-07T16:43:56;19.30;38.80
6986;DHT22;3533;51.246;6.850;2022-12-07T16:46:22;19.30;38.80
6986;DHT22;3533;51.246;6.850;2022-12-07T16:48:47;19.30;38.70
6986;DHT22;3533;51.246;6.850;2022-12-07T16:51:13;19.30;38.80
6986;DHT22;3533;51.246;6.850;2022-12-07T16:53:41;19.30;38.70
6986;DHT22;3533;51.246;6.850;2022-12-07T16:56:14;19.30;38.80
6986;DHT22;3533;51.246;6.850;2022-12-07T16:58:41;19.30;38.70
6986;DHT22;3533;51.246;6.850;2022-12-07T17:01:18;19.30;38.70
6986;DHT22;3533;51.246;6.850;2022-12-07T17:03:45;19.30;38.70
6986;DHT22;3533;51.246;6.850;2022-12-07T17:06:13;19.30;38.80
6986;DHT22;3533;51.246;6.850;2022-12-07T17:08:39;19.30;38.70
6986;DHT22;3533;51.246;6.850;2022-12-07T17:11:17;19.30;38.70
6986;DHT22;3533;51.246;6.850;2022-12-07T17:13:42;19.40;38.80
6986;DHT22;3533;51.246;6.850;2022-12-07T17:16:40;19.40;38.80
6986;DHT22;3533;51.246;6.850;2022-12-07T17:19:11;19.40;38.80
6986;DHT22;3533;51.246;6.850;2022-12-07T17:21:37;19.40;38.80
6986;DHT22;3533;51.246;6.850;2022-12-07T17:24:06;19.40;38.80
6986;DHT22;3533;51.246;6.850;2022-12-07T17:26:32;19.40;38.80
6986;DHT22;3533;51.246;6.850;2022-12-07T17:28:58;19.30;38.80
6986;DHT22;3533;51.246;6.850;2022-12-07T17:31:24;19.40;38.80
6986;DHT22;3533;51.246;6.850;2022-12-07T17:33:50;19.40;38.90
6986;DHT22;3533;51.246;6.850;2022-12-07T17:36:19;19.40;38.80
6986;DHT22;3533;51.246;6.850;2022-12-07T17:38:45;19.40;38.80
6986;DHT22;3533;51.246;6.850;2022-12-07T17:41:17;19.40;38.90
6986;DHT22;3533;51.246;6.850;2022-12-07T17:44:04;19.40;38.90
6986;DHT22;3533;51.246;6.850;2022-12-07T17:46:30;19.40;38.90
6986;DHT22;3533;51.246;6.850;2022-12-07T17:48:56;19.40;38.80
6986;DHT22;3533;51.246;6.850;2022-12-07T17:51:22;19.40;38.90
6986;DHT22;3533;51.246;6.850;2022-12-07T17:54:07;19.40;38.90
6986;DHT22;3533;51.246;6.850;2022-12-07T17:56:33;19.40;38.80
6986;DHT22;3533;51.246;6.850;2022-12-07T17:58:58;19.40;39.00
6986;DHT22;3533;51.246;6.850;2022-12-07T18:01:24;19.40;39.00
6986;DHT22;3533;51.246;6.850;2022-12-07T18:03:49;19.40;39.00
6986;DHT22;3533;51.246;6.850;2022-12-07T18:06:15;19.40;39.00
6986;DHT22;3533;51.246;6.850;2022-12-07T18:08:40;19.40;39.00
6986;DHT22;3533;51.246;6.850;2022-12-07T18:11:06;19.40;39.00
6986;DHT22;3533;51.246;6.850;2022-12-07T18:13:33;19.40;39.00
6986;DHT22;3533;51.246;6.850;2022-12-07T18:16:13;19.40;39.00
6986;DHT22;3533;51.246;6.850;2022-12-07T18:18:40;19.40;39.00